sensor_id;sensor_type;location;lat;lon;timestamp;pressure;altitude;pressure_sealevel;temperature;humidity
60087;BME280;45960;53.630;55.972;2022-09-09T00:00:32;100220.38;;;10.47;66.42
60087;BME280;45960;53.630;55.972;2022-09-09T00:03:11;100227.06;;;10.40;66.46
60087;BME280;45960;53.630;55.972;2022-09-09T00:04:26;100228.63;;;10.16;67.09
60087;BME280;45960;53.630;55.972;2022-09-09T00:08:15;100224.41;;;10.26;67.00
60087;BME280;45960;53.630;55.972;2022-09-09T00:09:21;100220.81;;;10.27;67.03
60087;BME280;45960;53.630;55.972;2022-09-09T00:10:32;100200.22;;;10.15;67.13
60087;BME280;45960;53.630;55.972;2022-09-09T00:11:45;100220.81;;;10.27;66.56
60087;BME280;45960;53.630;55.972;2022-09-09T00:13:22;100215.84;;;10.21;66.48
60087;BME280;45960;53.630;55.972;2022-09-09T00:14:41;100217.66;;;10.20;66.71
60087;BME280;45960;53.630;55.972;2022-09-09T00:16:02;100222.22;;;10.18;66.88
60087;BME280;45960;53.630;55.972;2022-09-09T00:17:38;100224.53;;;10.10;66.91
60087;BME280;45960;53.630;55.972;2022-09-09T00:20:03;100207.19;;;10.17;66.96
60087;BME280;45960;53.630;55.972;2022-09-09T00:21:15;100211.16;;;10.24;67.13
60087;BME280;45960;53.630;55.972;2022-09-09T00:22:20;100204.97;;;10.24;66.94
60087;BME280;45960;53.630;55.972;2022-09-09T00:23:50;100210.22;;;10.25;66.69
60087;BME280;45960;53.630;55.972;2022-09-09T00:24:52;100197.75;;;10.12;66.90
60087;BME280;45960;53.630;55.972;2022-09-09T00:26:04;100213.72;;;10.26;67.07
60087;BME280;45960;53.630;55.972;2022-09-09T00:28:23;100215.47;;;10.27;67.44
60087;BME280;45960;53.630;55.972;2022-09-09T00:30:36;100206.31;;;10.31;67.70
60087;BME280;45960;53.630;55.972;2022-09-09T00:31:38;100211.44;;;10.34;67.81
60087;BME280;45960;53.630;55.972;2022-09-09T00:32:40;100205.44;;;10.30;67.68
60087;BME280;45960;53.630;55.972;2022-09-09T00:33:42;100207.63;;;10.38;67.83
60087;BME280;45960;53.630;55.972;2022-09-09T00:34:54;100211.25;;;10.37;67.52
60087;BME280;45960;53.630;55.972;2022-09-09T00:36:00;100212.94;;;10.38;67.54
60087;BME280;45960;53.630;55.972;2022-09-09T00:37:02;100205.72;;;10.40;67.69
60087;BME280;45960;53.630;55.972;2022-09-09T00:38:14;100203.25;;;10.37;67.59
60087;BME280;45960;53.630;55.972;2022-09-09T00:39:27;100207.81;;;10.35;67.92
60087;BME280;45960;53.630;55.972;2022-09-09T00:40:35;100205.16;;;10.35;67.92
60087;BME280;45960;53.630;55.972;2022-09-09T00:44:31;100204.97;;;10.24;68.11
60087;BME280;45960;53.630;55.972;2022-09-09T00:45:45;100201.22;;;10.26;68.35
60087;BME280;45960;53.630;55.972;2022-09-09T00:47:56;100175.03;;;10.19;68.13
60087;BME280;45960;53.630;55.972;2022-09-09T00:50:38;100195.88;;;10.26;67.98
60087;BME280;45960;53.630;55.972;2022-09-09T00:55:21;100196.78;;;10.13;68.50
60087;BME280;45960;53.630;55.972;2022-09-09T00:56:42;100196.78;;;10.13;68.63
60087;BME280;45960;53.630;55.972;2022-09-09T00:57:48;100200.22;;;10.15;68.59
60087;BME280;45960;53.630;55.972;2022-09-09T00:59:24;100196.91;;;10.11;68.37
60087;BME280;45960;53.630;55.972;2022-09-09T01:00:37;100196.78;;;10.13;68.49
60087;BME280;45960;53.630;55.972;2022-09-09T01:01:41;100200.03;;;10.18;68.54
60087;BME280;45960;53.630;55.972;2022-09-09T01:04:21;100196.59;;;10.16;68.53
60087;BME280;45960;53.630;55.972;2022-09-09T01:06:46;100188.50;;;10.17;68.28
60087;BME280;45960;53.630;55.972;2022-09-09T01:07:52;100190.75;;;10.23;68.42
60087;BME280;45960;53.630;55.972;2022-09-09T01:09:55;100188.22;;;10.07;68.22
60087;BME280;45960;53.630;55.972;2022-09-09T01:10:54;100192.41;;;10.12;68.49
60087;BME280;45960;53.630;55.972;2022-09-09T01:12:14;100100.66;;;9.58;68.18
60087;BME280;45960;53.630;55.972;2022-09-09T01:13:23;100189.75;;;10.12;68.15
60087;BME280;45960;53.630;55.972;2022-09-09T01:15:36;100191.25;;;10.16;68.19
60087;BME280;45960;53.630;55.972;2022-09-09T01:16:40;100186.56;;;10.19;68.26
60087;BME280;45960;53.630;55.972;2022-09-09T01:18:49;100183.59;;;10.24;67.98
60087;BME280;45960;53.630;55.972;2022-09-09T01:20:02;100185.50;;;10.22;68.02
60087;BME280;45960;53.630;55.972;2022-09-09T01:22:35;100185.91;;;10.16;68.17
60087;BME280;45960;53.630;55.972;2022-09-09T01:26:44;100180.22;;;10.07;68.35
60087;BME280;45960;53.630;55.972;2022-09-09T01:27:57;100175.63;;;10.09;68.38
60087;BME280;45960;53.630;55.972;2022-09-09T01:28:59;100178.88;;;10.15;68.55
60087;BME280;45960;53.630;55.972;2022-09-09T01:30:11;100156.59;;;10.01;68.41
60087;BME280;45960;53.630;55.972;2022-09-09T01:31:30;100180.13;;;10.09;68.31
60087;BME280;45960;53.630;55.972;2022-09-09T01:32:54;100177.09;;;10.01;68.34
60087;BME280;45960;53.630;55.972;2022-09-09T01:33:56;100180.22;;;10.07;68.41
60087;BME280;45960;53.630;55.972;2022-09-09T01:34:58;100167.72;;;10.08;68.35
60087;BME280;45960;53.630;55.972;2022-09-09T01:36:00;100173.72;;;10.12;68.20
60087;BME280;45960;53.630;55.972;2022-09-09T01:37:12;100178.22;;;10.11;68.20
60087;BME280;45960;53.630;55.972;2022-09-09T01:38:15;100171.06;;;10.12;68.40
60087;BME280;45960;53.630;55.972;2022-09-09T01:39:17;100170.94;;;10.13;68.01
60087;BME280;45960;53.630;55.972;2022-09-09T01:40:19;100175.34;;;10.14;68.15
60087;BME280;45960;53.630;55.972;2022-09-09T01:41:22;100164.09;;;10.09;67.98
60087;BME280;45960;53.630;55.972;2022-09-09T01:42:31;100172.75;;;10.13;68.03
60087;BME280;45960;53.630;55.972;2022-09-09T01:43:33;100171.78;;;10.14;67.82
60087;BME280;45960;53.630;55.972;2022-09-09T01:44:36;100176.19;;;10.15;67.82
60087;BME280;45960;53.630;55.972;2022-09-09T01:45:39;100161.72;;;10.04;67.66
60087;BME280;45960;53.630;55.972;2022-09-09T01:46:41;100179.06;;;10.12;67.57
60087;BME280;45960;53.630;55.972;2022-09-09T01:47:51;100177.53;;;10.07;67.61
60087;BME280;45960;53.630;55.972;2022-09-09T01:49:11;100172.59;;;10.01;67.76
60087;BME280;45960;53.630;55.972;2022-09-09T01:50:16;100171.63;;;10.02;67.48
60087;BME280;45960;53.630;55.972;2022-09-09T01:51:17;100180.31;;;10.06;67.45
60087;BME280;45960;53.630;55.972;2022-09-09T01:52:18;100172.19;;;10.07;67.33
60087;BME280;45960;53.630;55.972;2022-09-09T01:53:21;100174.97;;;10.06;67.30
60087;BME280;45960;53.630;55.972;2022-09-09T01:54:25;100181.16;;;10.06;67.38
60087;BME280;45960;53.630;55.972;2022-09-09T01:55:36;100176.97;;;10.02;67.31
60087;BME280;45960;53.630;55.972;2022-09-09T01:56:54;100181.44;;;9.75;67.85
60087;BME280;45960;53.630;55.972;2022-09-09T01:59:57;100184.94;;;9.75;68.00
60087;BME280;45960;53.630;55.972;2022-09-09T02:02:33;100178.00;;;9.73;68.41
60087;BME280;45960;53.630;55.972;2022-09-09T02:03:52;100177.81;;;9.76;68.55
60087;BME280;45960;53.630;55.972;2022-09-09T02:05:01;100182.16;;;9.77;68.54
60087;BME280;45960;53.630;55.972;2022-09-09T02:06:35;100181.78;;;9.69;68.54
60087;BME280;45960;53.630;55.972;2022-09-09T02:08:09;100172.28;;;9.64;68.82
60087;BME280;45960;53.630;55.972;2022-09-09T02:09:24;100176.47;;;9.69;68.90
60087;BME280;45960;53.630;55.972;2022-09-09T02:11:55;100181.59;;;9.72;69.03
60087;BME280;45960;53.630;55.972;2022-09-09T02:13:13;100173.59;;;9.72;69.16
60087;BME280;45960;53.630;55.972;2022-09-09T02:14:19;100181.22;;;9.78;69.21
60087;BME280;45960;53.630;55.972;2022-09-09T02:15:39;100175.91;;;9.78;69.32
60087;BME280;45960;53.630;55.972;2022-09-09T02:16:44;100174.16;;;9.77;69.52
60087;BME280;45960;53.630;55.972;2022-09-09T02:17:50;100120.84;;;9.48;69.42
60087;BME280;45960;53.630;55.972;2022-09-09T02:20:38;100176.09;;;9.75;69.87
60087;BME280;45960;53.630;55.972;2022-09-09T02:21:42;100172.91;;;9.82;69.71
60087;BME280;45960;53.630;55.972;2022-09-09T02:22:47;100162.94;;;9.86;69.53
60087;BME280;45960;53.630;55.972;2022-09-09T02:23:52;100171.47;;;9.91;69.77
60087;BME280;45960;53.630;55.972;2022-09-09T02:24:56;100171.31;;;9.94;69.52
60087;BME280;45960;53.630;55.972;2022-09-09T02:26:01;100170.13;;;9.98;69.47
60087;BME280;45960;53.630;55.972;2022-09-09T02:27:07;100174.50;;;9.99;69.32
60087;BME280;45960;53.630;55.972;2022-09-09T02:28:10;100170.69;;;10.03;69.36
60087;BME280;45960;53.630;55.972;2022-09-09T02:29:40;100178.34;;;9.95;69.39
60087;BME280;45960;53.630;55.972;2022-09-09T02:30:50;100121.19;;;9.71;69.52
60087;BME280;45960;53.630;55.972;2022-09-09T02:32:01;100174.50;;;9.99;69.54
60087;BME280;45960;53.630;55.972;2022-09-09T02:33:09;100128.81;;;9.77;69.61
60087;BME280;45960;53.630;55.972;2022-09-09T02:34:22;100176.03;;;10.03;69.76
60087;BME280;45960;53.630;55.972;2022-09-09T02:35:25;100173.03;;;10.08;69.62
60087;BME280;45960;53.630;55.972;2022-09-09T02:36:31;100171.47;;;10.05;69.54
60087;BME280;45960;53.630;55.972;2022-09-09T02:37:39;100167.72;;;10.08;69.44
60087;BME280;45960;53.630;55.972;2022-09-09T02:38:45;100167.53;;;10.11;69.29
60087;BME280;45960;53.630;55.972;2022-09-09T02:39:51;100170.09;;;10.13;69.47
60087;BME280;45960;53.630;55.972;2022-09-09T02:40:55;100166.44;;;10.14;69.61
60087;BME280;45960;53.630;55.972;2022-09-09T02:41:56;100175.03;;;10.19;69.38
60087;BME280;45960;53.630;55.972;2022-09-09T02:43:04;100171.63;;;10.17;69.31
60087;BME280;45960;53.630;55.972;2022-09-09T02:44:12;100177.91;;;10.16;69.13
60087;BME280;45960;53.630;55.972;2022-09-09T02:45:19;100176.00;;;10.18;69.17
60087;BME280;45960;53.630;55.972;2022-09-09T02:46:46;100173.13;;;10.21;68.92
60087;BME280;45960;53.630;55.972;2022-09-09T02:48:09;100172.00;;;10.11;68.71
60087;BME280;45960;53.630;55.972;2022-09-09T02:52:07;100167.91;;;10.05;69.00
60087;BME280;45960;53.630;55.972;2022-09-09T02:53:17;100167.72;;;10.08;69.01
60087;BME280;45960;53.630;55.972;2022-09-09T02:55:39;100175.22;;;10.16;68.98
60087;BME280;45960;53.630;55.972;2022-09-09T02:56:52;100166.44;;;10.14;68.71
60087;BME280;45960;53.630;55.972;2022-09-09T02:57:59;100131.91;;;9.98;68.83
60087;BME280;45960;53.630;55.972;2022-09-09T02:59:04;100162.44;;;10.21;68.76
60087;BME280;45960;53.630;55.972;2022-09-09T03:00:06;100169.28;;;10.25;68.90
60087;BME280;45960;53.630;55.972;2022-09-09T03:01:09;100169.97;;;10.28;68.69
60087;BME280;45960;53.630;55.972;2022-09-09T03:02:10;100163.59;;;10.31;68.80
60087;BME280;45960;53.630;55.972;2022-09-09T03:03:12;100165.09;;;10.35;68.73
60087;BME280;45960;53.630;55.972;2022-09-09T03:04:14;100164.13;;;10.36;68.71
60087;BME280;45960;53.630;55.972;2022-09-09T03:05:16;100167.56;;;10.38;68.78
60087;BME280;45960;53.630;55.972;2022-09-09T03:06:17;100166.41;;;10.42;68.64
60087;BME280;45960;53.630;55.972;2022-09-09T03:07:22;100146.59;;;10.32;68.79
60087;BME280;45960;53.630;55.972;2022-09-09T03:08:25;100155.72;;;10.42;68.70
60087;BME280;45960;53.630;55.972;2022-09-09T03:09:27;100157.34;;;10.45;68.66
60087;BME280;45960;53.630;55.972;2022-09-09T03:10:29;100166.84;;;10.49;68.63
60087;BME280;45960;53.630;55.972;2022-09-09T03:11:30;100168.47;;;10.51;68.58
60087;BME280;45960;53.630;55.972;2022-09-09T03:12:32;100165.56;;;10.55;68.39
60087;BME280;45960;53.630;55.972;2022-09-09T03:13:34;100163.66;;;10.57;68.47
60087;BME280;45960;53.630;55.972;2022-09-09T03:14:35;100167.09;;;10.59;68.53
60087;BME280;45960;53.630;55.972;2022-09-09T03:15:36;100167.75;;;10.62;68.60
60087;BME280;45960;53.630;55.972;2022-09-09T03:16:38;100159.59;;;10.64;68.39
60087;BME280;45960;53.630;55.972;2022-09-09T03:17:39;100167.41;;;10.67;68.32
60087;BME280;45960;53.630;55.972;2022-09-09T03:18:41;100159.22;;;10.70;68.27
60087;BME280;45960;53.630;55.972;2022-09-09T03:19:43;100158.25;;;10.71;68.43
60087;BME280;45960;53.630;55.972;2022-09-09T03:20:46;100140.19;;;10.62;68.33
60087;BME280;45960;53.630;55.972;2022-09-09T03:21:51;100159.00;;;10.73;68.37
60087;BME280;45960;53.630;55.972;2022-09-09T03:22:53;100157.19;;;10.73;68.13
60087;BME280;45960;53.630;55.972;2022-09-09T03:23:54;100131.94;;;10.65;68.35
60087;BME280;45960;53.630;55.972;2022-09-09T03:24:56;100146.38;;;10.75;68.47
60087;BME280;45960;53.630;55.972;2022-09-09T03:25:57;100156.47;;;10.84;68.50
60087;BME280;45960;53.630;55.972;2022-09-09T03:27:08;100156.47;;;10.84;68.58
60087;BME280;45960;53.630;55.972;2022-09-09T03:28:11;100155.41;;;10.87;68.28
60087;BME280;45960;53.630;55.972;2022-09-09T03:29:13;100160.53;;;10.90;68.23
60087;BME280;45960;53.630;55.972;2022-09-09T03:30:16;100152.38;;;10.91;68.16
60087;BME280;45960;53.630;55.972;2022-09-09T03:31:17;100155.81;;;10.93;68.20
60087;BME280;45960;53.630;55.972;2022-09-09T03:32:20;100145.13;;;10.93;68.18
60087;BME280;45960;53.630;55.972;2022-09-09T03:33:23;100146.63;;;10.97;68.12
60087;BME280;45960;53.630;55.972;2022-09-09T03:34:24;100153.47;;;11.02;67.94
60087;BME280;45960;53.630;55.972;2022-09-09T03:35:25;100148.00;;;11.03;68.09
60087;BME280;45960;53.630;55.972;2022-09-09T03:36:26;100140.66;;;11.07;67.83
60087;BME280;45960;53.630;55.972;2022-09-09T03:37:29;100144.06;;;11.09;67.54
60087;BME280;45960;53.630;55.972;2022-09-09T03:38:30;100134.88;;;11.13;67.76
60087;BME280;45960;53.630;55.972;2022-09-09T03:39:33;100138.31;;;11.15;67.95
60087;BME280;45960;53.630;55.972;2022-09-09T03:40:34;100143.44;;;11.18;67.66
60087;BME280;45960;53.630;55.972;2022-09-09T03:41:36;100142.38;;;11.20;67.79
60087;BME280;45960;53.630;55.972;2022-09-09T03:42:39;100142.16;;;11.24;67.90
60087;BME280;45960;53.630;55.972;2022-09-09T03:43:40;100145.44;;;11.27;68.05
60087;BME280;45960;53.630;55.972;2022-09-09T03:44:42;100141.59;;;11.31;67.91
60087;BME280;45960;53.630;55.972;2022-09-09T03:45:47;100146.00;;;11.32;67.37
60087;BME280;45960;53.630;55.972;2022-09-09T03:46:49;100142.13;;;11.36;67.15
60087;BME280;45960;53.630;55.972;2022-09-09T03:47:50;100145.34;;;11.41;67.34
60087;BME280;45960;53.630;55.972;2022-09-09T03:48:51;100144.16;;;11.46;67.12
60087;BME280;45960;53.630;55.972;2022-09-09T03:49:55;100144.88;;;11.48;66.86
60087;BME280;45960;53.630;55.972;2022-09-09T03:50:56;100139.31;;;11.51;65.95
60087;BME280;45960;53.630;55.972;2022-09-09T03:52:01;100129.28;;;11.54;66.07
60087;BME280;45960;53.630;55.972;2022-09-09T03:53:03;100136.22;;;11.57;66.19
60087;BME280;45960;53.630;55.972;2022-09-09T03:54:07;100138.69;;;11.60;65.83
60087;BME280;45960;53.630;55.972;2022-09-09T03:55:11;100129.59;;;11.62;65.70
60087;BME280;45960;53.630;55.972;2022-09-09T03:56:12;100123.88;;;11.67;65.47
60087;BME280;45960;53.630;55.972;2022-09-09T03:57:13;100123.66;;;11.70;65.29
60087;BME280;45960;53.630;55.972;2022-09-09T03:58:17;100127.09;;;11.72;64.92
60087;BME280;45960;53.630;55.972;2022-09-09T03:59:21;100120.88;;;11.72;64.83
60087;BME280;45960;53.630;55.972;2022-09-09T04:00:24;100126.84;;;11.75;64.26
60087;BME280;45960;53.630;55.972;2022-09-09T04:01:27;100132.97;;;11.77;64.23
60087;BME280;45960;53.630;55.972;2022-09-09T04:02:28;100131.75;;;11.81;64.06
60087;BME280;45960;53.630;55.972;2022-09-09T04:03:29;100131.53;;;11.84;64.07
60087;BME280;45960;53.630;55.972;2022-09-09T04:04:31;100125.13;;;11.87;64.48
60087;BME280;45960;53.630;55.972;2022-09-09T04:05:32;100130.25;;;11.90;64.73
60087;BME280;45960;53.630;55.972;2022-09-09T04:06:35;100131.75;;;11.94;64.96
60087;BME280;45960;53.630;55.972;2022-09-09T04:07:36;100131.63;;;11.96;64.60
60087;BME280;45960;53.630;55.972;2022-09-09T04:08:37;100124.34;;;11.98;64.56
60087;BME280;45960;53.630;55.972;2022-09-09T04:09:39;100127.78;;;12.00;64.33
60087;BME280;45960;53.630;55.972;2022-09-09T04:10:40;100128.41;;;12.03;63.88
60087;BME280;45960;53.630;55.972;2022-09-09T04:11:43;100130.47;;;12.00;63.58
60087;BME280;45960;53.630;55.972;2022-09-09T04:12:44;100134.38;;;12.07;63.68
60087;BME280;45960;53.630;55.972;2022-09-09T04:13:45;100135.34;;;12.06;62.68
60087;BME280;45960;53.630;55.972;2022-09-09T04:14:48;100133.66;;;12.05;62.60
60087;BME280;45960;53.630;55.972;2022-09-09T04:15:51;100135.34;;;12.06;62.39
60087;BME280;45960;53.630;55.972;2022-09-09T04:16:53;100130.84;;;12.06;62.65
60087;BME280;45960;53.630;55.972;2022-09-09T04:17:54;100136.84;;;12.10;62.66
60087;BME280;45960;53.630;55.972;2022-09-09T04:18:56;100142.22;;;12.10;62.59
60087;BME280;45960;53.630;55.972;2022-09-09T04:19:59;100134.91;;;12.12;62.78
60087;BME280;45960;53.630;55.972;2022-09-09T04:21:00;100136.63;;;12.13;63.16
60087;BME280;45960;53.630;55.972;2022-09-09T04:22:04;100139.31;;;12.13;63.36
60087;BME280;45960;53.630;55.972;2022-09-09T04:23:06;100132.75;;;12.17;63.34
60087;BME280;45960;53.630;55.972;2022-09-09T04:24:08;100144.06;;;12.21;62.89
60087;BME280;45960;53.630;55.972;2022-09-09T04:25:09;100143.00;;;12.23;62.54
60087;BME280;45960;53.630;55.972;2022-09-09T04:26:10;100131.28;;;12.13;62.25
60087;BME280;45960;53.630;55.972;2022-09-09T04:27:13;100143.88;;;12.24;62.49
60087;BME280;45960;53.630;55.972;2022-09-09T04:28:15;100132.50;;;12.20;62.86
60087;BME280;45960;53.630;55.972;2022-09-09T04:29:17;100147.91;;;12.29;62.99
60087;BME280;45960;53.630;55.972;2022-09-09T04:30:18;100149.63;;;12.30;62.44
60087;BME280;45960;53.630;55.972;2022-09-09T04:31:21;100151.31;;;12.31;62.26
60087;BME280;45960;53.630;55.972;2022-09-09T04:32:26;100136.22;;;12.30;61.84
60087;BME280;45960;53.630;55.972;2022-09-09T04:33:29;100153.03;;;12.32;62.32
60087;BME280;45960;53.630;55.972;2022-09-09T04:34:31;100145.94;;;12.31;61.85
60087;BME280;45960;53.630;55.972;2022-09-09T04:35:33;100151.72;;;12.38;62.04
60087;BME280;45960;53.630;55.972;2022-09-09T04:36:35;100150.66;;;12.41;61.96
60087;BME280;45960;53.630;55.972;2022-09-09T04:37:39;100145.91;;;12.44;61.55
60087;BME280;45960;53.630;55.972;2022-09-09T04:38:40;100142.84;;;12.49;62.11
60087;BME280;45960;53.630;55.972;2022-09-09T04:39:41;100153.38;;;12.52;62.81
60087;BME280;45960;53.630;55.972;2022-09-09T04:40:46;100151.19;;;12.57;62.75
60087;BME280;45960;53.630;55.972;2022-09-09T04:41:48;100147.78;;;12.55;61.80
60087;BME280;45960;53.630;55.972;2022-09-09T04:42:50;100152.66;;;12.61;62.12
60087;BME280;45960;53.630;55.972;2022-09-09T04:43:51;100156.28;;;12.60;61.70
60087;BME280;45960;53.630;55.972;2022-09-09T04:44:55;100152.31;;;12.66;61.78
60087;BME280;45960;53.630;55.972;2022-09-09T04:45:57;100144.88;;;12.58;61.96
60087;BME280;45960;53.630;55.972;2022-09-09T04:46:59;100158.16;;;12.71;61.92
60087;BME280;45960;53.630;55.972;2022-09-09T04:48:01;100156.84;;;12.76;61.81
60087;BME280;45960;53.630;55.972;2022-09-09T04:49:04;100156.84;;;12.76;61.47
60087;BME280;45960;53.630;55.972;2022-09-09T04:50:08;100161.13;;;12.79;61.16
60087;BME280;45960;53.630;55.972;2022-09-09T04:51:12;100157.84;;;12.75;61.00
60087;BME280;45960;53.630;55.972;2022-09-09T04:52:14;100155.25;;;12.74;61.22
60087;BME280;45960;53.630;55.972;2022-09-09T04:53:18;100161.03;;;12.81;61.20
60087;BME280;45960;53.630;55.972;2022-09-09T04:54:19;100163.47;;;12.84;61.63
60087;BME280;45960;53.630;55.972;2022-09-09T04:55:21;100162.38;;;12.86;61.38
60087;BME280;45960;53.630;55.972;2022-09-09T04:56:22;100159.56;;;12.88;61.61
60087;BME280;45960;53.630;55.972;2022-09-09T04:57:30;100160.53;;;12.87;61.33
60087;BME280;45960;53.630;55.972;2022-09-09T04:58:32;100164.47;;;12.94;61.41
60087;BME280;45960;53.630;55.972;2022-09-09T04:59:33;100157.16;;;12.96;60.92
60087;BME280;45960;53.630;55.972;2022-09-09T05:00:37;100161.66;;;12.95;60.85
60087;BME280;45960;53.630;55.972;2022-09-09T05:01:40;100164.94;;;12.99;61.10
60087;BME280;45960;53.630;55.972;2022-09-09T05:02:41;100160.56;;;12.98;61.23
60087;BME280;45960;53.630;55.972;2022-09-09T05:03:43;100161.81;;;13.05;60.83
60087;BME280;45960;53.630;55.972;2022-09-09T05:04:52;100158.75;;;13.10;61.06
60087;BME280;45960;53.630;55.972;2022-09-09T05:05:53;100166.31;;;13.16;61.20
60087;BME280;45960;53.630;55.972;2022-09-09T05:06:55;100157.44;;;13.15;61.13
60087;BME280;45960;53.630;55.972;2022-09-09T05:08:06;100169.41;;;13.23;61.01
60087;BME280;45960;53.630;55.972;2022-09-09T05:09:08;100154.91;;;13.25;60.70
60087;BME280;45960;53.630;55.972;2022-09-09T05:10:09;100154.31;;;13.33;60.70
60087;BME280;45960;53.630;55.972;2022-09-09T05:12:15;100124.03;;;13.19;60.71
60087;BME280;45960;53.630;55.972;2022-09-09T05:13:26;100164.09;;;13.45;60.41
60087;BME280;45960;53.630;55.972;2022-09-09T05:14:27;100158.22;;;13.51;60.49
60087;BME280;45960;53.630;55.972;2022-09-09T05:15:29;100158.72;;;13.56;60.43
60087;BME280;45960;53.630;55.972;2022-09-09T05:16:31;100161.16;;;13.59;60.00
60087;BME280;45960;53.630;55.972;2022-09-09T05:17:32;100159.31;;;13.60;59.28
60087;BME280;45960;53.630;55.972;2022-09-09T05:18:33;100160.91;;;13.62;59.68
60087;BME280;45960;53.630;55.972;2022-09-09T05:19:34;100154.44;;;13.65;58.92
60087;BME280;45960;53.630;55.972;2022-09-09T05:20:36;100153.34;;;13.68;58.96
60087;BME280;45960;53.630;55.972;2022-09-09T05:21:37;100159.56;;;13.68;58.34
60087;BME280;45960;53.630;55.972;2022-09-09T05:22:38;100167.53;;;13.70;58.07
60087;BME280;45960;53.630;55.972;2022-09-09T05:23:39;100161.41;;;13.68;57.75
60087;BME280;45960;53.630;55.972;2022-09-09T05:24:41;100163.84;;;13.71;57.86
60087;BME280;45960;53.630;55.972;2022-09-09T05:25:42;100157.47;;;13.72;57.57
60087;BME280;45960;53.630;55.972;2022-09-09T05:26:44;100163.59;;;13.74;57.33
60087;BME280;45960;53.630;55.972;2022-09-09T05:27:46;100164.69;;;13.71;56.42
60087;BME280;45960;53.630;55.972;2022-09-09T05:28:48;100159.56;;;13.68;56.08
60087;BME280;45960;53.630;55.972;2022-09-09T05:29:50;100166.78;;;13.68;56.18
60087;BME280;45960;53.630;55.972;2022-09-09T05:31:05;100157.50;;;13.60;57.05
60087;BME280;45960;53.630;55.972;2022-09-09T05:32:09;100162.63;;;13.63;57.80
60087;BME280;45960;53.630;55.972;2022-09-09T05:33:11;100158.97;;;13.64;58.24
60087;BME280;45960;53.630;55.972;2022-09-09T05:34:12;100157.00;;;13.66;58.44
60087;BME280;45960;53.630;55.972;2022-09-09T05:35:14;100154.19;;;13.68;58.95
60087;BME280;45960;53.630;55.972;2022-09-09T05:36:17;100147.97;;;13.68;58.42
60087;BME280;45960;53.630;55.972;2022-09-09T05:37:20;100146.03;;;13.70;58.59
60087;BME280;45960;53.630;55.972;2022-09-09T05:38:21;100151.16;;;13.73;59.22
60087;BME280;45960;53.630;55.972;2022-09-09T05:39:25;100156.53;;;13.73;59.94
60087;BME280;45960;53.630;55.972;2022-09-09T05:40:26;100156.53;;;13.73;60.03
60087;BME280;45960;53.630;55.972;2022-09-09T05:41:27;100148.47;;;13.73;60.90
60087;BME280;45960;53.630;55.972;2022-09-09T05:42:31;100154.56;;;13.75;61.60
60087;BME280;45960;53.630;55.972;2022-09-09T05:43:34;100154.31;;;13.78;61.54
60087;BME280;45960;53.630;55.972;2022-09-09T05:44:37;100148.94;;;13.78;61.24
60087;BME280;45960;53.630;55.972;2022-09-09T05:45:38;100150.66;;;13.79;60.99
60087;BME280;45960;53.630;55.972;2022-09-09T05:46:39;100154.09;;;13.81;61.06
60087;BME280;45960;53.630;55.972;2022-09-09T05:47:41;100154.09;;;13.81;60.78
60087;BME280;45960;53.630;55.972;2022-09-09T05:48:46;100149.66;;;13.80;60.63
60087;BME280;45960;53.630;55.972;2022-09-09T05:49:47;100142.13;;;13.74;60.38
60087;BME280;45960;53.630;55.972;2022-09-09T05:50:53;100153.34;;;13.79;60.67
60087;BME280;45960;53.630;55.972;2022-09-09T05:51:55;100146.72;;;13.83;61.27
60087;BME280;45960;53.630;55.972;2022-09-09T05:52:58;100144.78;;;13.85;61.53
60087;BME280;45960;53.630;55.972;2022-09-09T05:53:59;100151.59;;;13.89;61.24
60087;BME280;45960;53.630;55.972;2022-09-09T05:55:04;100153.31;;;13.90;61.08
60087;BME280;45960;53.630;55.972;2022-09-09T05:56:12;100153.31;;;13.90;61.19
60087;BME280;45960;53.630;55.972;2022-09-09T05:57:18;100154.78;;;13.94;61.25
60087;BME280;45960;53.630;55.972;2022-09-09T05:58:20;100149.41;;;13.94;60.84
60087;BME280;45960;53.630;55.972;2022-09-09T05:59:22;100154.53;;;13.97;61.15
60087;BME280;45960;53.630;55.972;2022-09-09T06:00:26;100163.31;;;13.99;61.05
60087;BME280;45960;53.630;55.972;2022-09-09T06:01:29;100154.31;;;14.00;61.14
60087;BME280;45960;53.630;55.972;2022-09-09T06:02:31;100152.31;;;14.02;60.85
60087;BME280;45960;53.630;55.972;2022-09-09T06:03:38;100164.53;;;14.06;60.83
60087;BME280;45960;53.630;55.972;2022-09-09T06:04:40;100165.13;;;14.10;60.85
60087;BME280;45960;53.630;55.972;2022-09-09T06:05:41;100161.44;;;14.11;60.57
60087;BME280;45960;53.630;55.972;2022-09-09T06:06:43;100163.78;;;14.16;60.20
60087;BME280;45960;53.630;55.972;2022-09-09T06:07:52;100159.75;;;14.10;60.16
60087;BME280;45960;53.630;55.972;2022-09-09T06:08:55;100142.41;;;14.03;60.40
60087;BME280;45960;53.630;55.972;2022-09-09T06:10:00;100163.53;;;14.19;60.47
60087;BME280;45960;53.630;55.972;2022-09-09T06:11:02;100156.19;;;14.21;59.95
60087;BME280;45960;53.630;55.972;2022-09-09T06:12:04;100151.06;;;14.18;59.19
60087;BME280;45960;53.630;55.972;2022-09-09T06:13:09;100153.38;;;14.22;59.01
60087;BME280;45960;53.630;55.972;2022-09-09T06:14:11;100157.63;;;14.25;58.79
60087;BME280;45960;53.630;55.972;2022-09-09T06:15:13;100156.53;;;14.27;58.75
60087;BME280;45960;53.630;55.972;2022-09-09T06:16:17;100148.63;;;14.26;58.78